createdAt,value
2023-05-25T00:01:43.965Z,14.54
2023-05-25T00:04:11.638Z,14.54
2023-05-25T00:06:41.153Z,14.56
2023-05-25T00:09:08.422Z,14.56
2023-05-25T00:11:35.490Z,14.52
2023-05-25T00:14:02.367Z,14.51
2023-05-25T00:16:29.187Z,14.50
2023-05-25T00:18:57.635Z,14.47
2023-05-25T00:21:25.770Z,14.46
2023-05-25T00:23:52.741Z,14.45
2023-05-25T00:26:19.514Z,14.41
2023-05-25T00:28:46.384Z,14.40
2023-05-25T00:31:13.315Z,14.40
2023-05-25T00:33:40.454Z,14.37
2023-05-25T00:36:08.854Z,14.35
2023-05-25T00:38:36.640Z,14.34
2023-05-25T00:41:06.164Z,14.33
2023-05-25T00:43:33.240Z,14.31
2023-05-25T00:46:00.614Z,14.30
2023-05-25T00:48:27.573Z,14.30
2023-05-25T00:50:58.128Z,14.24
2023-05-25T00:53:27.049Z,14.20
2023-05-25T00:56:23.945Z,14.11
2023-05-25T00:58:57.135Z,14.15
2023-05-25T01:01:25.737Z,13.86
2023-05-25T01:03:54.153Z,14.06
2023-05-25T01:06:23.587Z,14.04
2023-05-25T01:08:54.125Z,14.02
2023-05-25T01:11:27.082Z,14.02
2023-05-25T01:13:54.750Z,13.98
2023-05-25T01:16:22.530Z,13.98
2023-05-25T01:18:52.832Z,13.94
2023-05-25T01:21:31.736Z,13.88
2023-05-25T01:24:12.869Z,13.81
2023-05-25T01:26:48.777Z,13.81
2023-05-25T01:29:19.107Z,13.77
2023-05-25T01:31:47.434Z,13.78
2023-05-25T01:34:15.260Z,13.75
2023-05-25T01:36:42.481Z,13.71
2023-05-25T01:39:11.256Z,13.66
2023-05-25T01:41:38.579Z,13.65
2023-05-25T01:44:07.842Z,13.63
2023-05-25T01:46:39.687Z,13.61
2023-05-25T01:49:22.977Z,13.53
2023-05-25T01:52:26.554Z,13.46
2023-05-25T01:55:22.480Z,13.49
2023-05-25T01:57:52.905Z,13.53
2023-05-25T02:00:21.427Z,13.58
2023-05-25T02:02:50.501Z,13.58
2023-05-25T02:05:20.219Z,13.56
2023-05-25T02:07:47.145Z,13.60
2023-05-25T02:10:14.040Z,13.59
2023-05-25T02:12:41.162Z,13.58
2023-05-25T02:15:08.679Z,13.58
2023-05-25T02:17:37.395Z,13.59
2023-05-25T02:20:25.230Z,13.58
2023-05-25T02:22:52.346Z,13.60
2023-05-25T02:25:19.197Z,13.61
2023-05-25T02:27:46.602Z,13.61
2023-05-25T02:30:13.793Z,13.62
2023-05-25T02:33:05.672Z,13.56
2023-05-25T02:35:33.441Z,13.56
2023-05-25T02:38:01.908Z,13.57
2023-05-25T02:40:30.230Z,13.59
2023-05-25T02:42:57.095Z,13.58
2023-05-25T02:45:24.283Z,13.58
2023-05-25T02:47:51.305Z,13.57
2023-05-25T02:50:19.620Z,13.59
2023-05-25T02:52:49.290Z,13.58
2023-05-25T02:55:18.780Z,13.60
2023-05-25T02:57:47.636Z,13.58
2023-05-25T03:00:28.835Z,13.57
2023-05-25T03:02:55.946Z,13.56
2023-05-25T03:05:23.052Z,13.57
2023-05-25T03:07:49.931Z,13.57
2023-05-25T03:10:16.805Z,13.58
2023-05-25T03:12:44.364Z,13.60
2023-05-25T03:15:16.012Z,13.62
2023-05-25T03:17:43.508Z,13.63
2023-05-25T03:20:11.833Z,13.62
2023-05-25T03:22:43.238Z,13.66
2023-05-25T03:25:13.307Z,13.73
2023-05-25T03:27:40.640Z,13.82
2023-05-25T03:30:09.259Z,13.91
2023-05-25T03:32:36.491Z,14.00
2023-05-25T03:35:05.638Z,14.07
2023-05-25T03:37:33.091Z,14.14
2023-05-25T03:39:59.927Z,14.22
2023-05-25T03:42:26.922Z,14.30
2023-05-25T03:44:54.071Z,14.38
2023-05-25T03:47:20.987Z,14.44
2023-05-25T03:49:48.103Z,14.52
2023-05-25T03:52:15.011Z,14.58
2023-05-25T03:54:42.171Z,14.61
2023-05-25T03:57:12.052Z,14.62
2023-05-25T03:59:38.905Z,14.62
2023-05-25T04:02:05.977Z,14.65
2023-05-25T04:04:32.914Z,14.70
2023-05-25T04:06:59.727Z,14.73
2023-05-25T04:09:26.551Z,14.75
2023-05-25T04:11:53.326Z,14.79
2023-05-25T04:14:21.654Z,14.84
2023-05-25T04:16:49.140Z,14.87
2023-05-25T04:19:16.603Z,14.89
2023-05-25T04:21:43.588Z,14.92
2023-05-25T04:24:11.438Z,14.87
2023-05-25T04:26:39.562Z,14.85
2023-05-25T04:29:07.158Z,14.91
2023-05-25T04:31:49.752Z,14.95
2023-05-25T04:34:33.927Z,15.04
2023-05-25T04:37:09.149Z,15.10
2023-05-25T04:39:37.020Z,15.22
2023-05-25T04:42:04.933Z,15.30
2023-05-25T04:44:34.047Z,15.39
2023-05-25T04:47:02.666Z,15.49
2023-05-25T04:49:32.234Z,15.59
2023-05-25T04:51:59.178Z,15.68
2023-05-25T04:54:28.996Z,15.76
2023-05-25T04:56:58.572Z,15.88
2023-05-25T04:59:25.791Z,16.01
2023-05-25T05:01:52.831Z,16.12
2023-05-25T05:04:19.906Z,16.24
2023-05-25T05:06:49.705Z,16.33
2023-05-25T05:09:21.650Z,16.39
2023-05-25T05:11:49.282Z,16.53
2023-05-25T05:14:17.138Z,16.64
2023-05-25T05:16:45.716Z,16.70
2023-05-25T05:19:13.975Z,16.78
2023-05-25T05:21:41.257Z,16.92
2023-05-25T05:24:08.966Z,17.26
2023-05-25T05:26:48.159Z,17.66
2023-05-25T05:29:26.942Z,18.03
2023-05-25T05:31:56.046Z,18.51
2023-05-25T05:34:23.018Z,19.07
2023-05-25T05:36:58.124Z,19.56
2023-05-25T05:39:27.133Z,20.04
2023-05-25T05:41:54.749Z,20.59
2023-05-25T05:44:24.082Z,21.79
2023-05-25T05:47:01.344Z,23.63
2023-05-25T05:49:30.991Z,25.27
2023-05-25T05:51:59.472Z,26.54
2023-05-25T05:54:30.347Z,27.59
2023-05-25T05:57:01.826Z,28.43
2023-05-25T05:59:29.941Z,29.21
2023-05-25T06:01:57.148Z,30.04
2023-05-25T06:04:28.648Z,30.38
2023-05-25T06:06:56.131Z,29.86
2023-05-25T06:09:22.938Z,30.12
2023-05-25T06:11:49.903Z,30.95
2023-05-25T06:14:17.811Z,30.96
2023-05-25T06:16:45.017Z,30.22
2023-05-25T06:19:12.406Z,30.27
2023-05-25T06:21:39.271Z,29.74
2023-05-25T06:24:06.922Z,29.41
2023-05-25T06:26:34.317Z,29.80
2023-05-25T06:29:01.931Z,30.49
2023-05-25T06:31:28.876Z,29.84
2023-05-25T06:33:56.218Z,29.76
2023-05-25T06:36:23.960Z,30.21
2023-05-25T06:38:51.460Z,30.43
2023-05-25T06:41:19.994Z,30.71
2023-05-25T06:43:47.375Z,30.33
2023-05-25T06:46:22.339Z,29.51
2023-05-25T06:48:49.272Z,29.62
2023-05-25T06:51:16.283Z,29.85
2023-05-25T06:53:43.849Z,29.70
2023-05-25T06:56:11.681Z,29.98
2023-05-25T06:58:38.582Z,30.00
2023-05-25T07:01:06.216Z,29.94
2023-05-25T07:03:33.258Z,30.29
2023-05-25T07:06:00.236Z,29.47
2023-05-25T07:08:27.088Z,28.53
2023-05-25T07:10:54.042Z,28.67
2023-05-25T07:13:21.307Z,28.78
2023-05-25T07:15:48.645Z,28.97
2023-05-25T07:18:16.320Z,28.83
2023-05-25T07:20:44.011Z,28.94
2023-05-25T07:23:11.737Z,29.13
2023-05-25T07:25:39.216Z,29.13
2023-05-25T07:28:06.870Z,29.36
2023-05-25T07:30:34.091Z,29.71
2023-05-25T07:33:02.246Z,29.68
2023-05-25T07:35:29.444Z,28.55
2023-05-25T07:38:05.524Z,27.80
2023-05-25T07:40:32.735Z,28.18
2023-05-25T07:42:59.671Z,28.27
2023-05-25T07:45:26.672Z,28.54
2023-05-25T07:47:53.774Z,28.31
2023-05-25T07:50:20.678Z,28.63
2023-05-25T07:52:47.738Z,28.96
2023-05-25T07:55:14.877Z,29.04
2023-05-25T07:57:41.981Z,29.34
2023-05-25T08:00:09.797Z,29.44
2023-05-25T08:02:43.632Z,29.34
2023-05-25T08:05:10.780Z,28.95
2023-05-25T08:07:39.582Z,28.59
2023-05-25T08:10:08.709Z,28.45
2023-05-25T08:12:47.895Z,28.49
2023-05-25T08:15:17.508Z,28.28
2023-05-25T08:17:44.891Z,27.90
2023-05-25T08:20:12.632Z,27.64
2023-05-25T08:22:40.705Z,27.98
2023-05-25T08:25:08.240Z,28.35
2023-05-25T08:27:36.225Z,27.94
2023-05-25T08:30:06.186Z,27.51
2023-05-25T08:32:33.480Z,27.14
2023-05-25T08:35:05.704Z,27.01
2023-05-25T08:37:33.506Z,26.63
2023-05-25T08:40:02.758Z,26.48
2023-05-25T08:42:33.315Z,26.66
2023-05-25T08:45:02.404Z,26.60
2023-05-25T08:47:34.360Z,26.01
2023-05-25T08:50:02.058Z,26.73
2023-05-25T08:52:34.408Z,26.77
2023-05-25T08:55:05.843Z,26.60
2023-05-25T08:57:58.615Z,26.66
2023-05-25T09:00:32.858Z,26.76
2023-05-25T09:03:09.735Z,27.08
2023-05-25T09:05:38.110Z,27.11
2023-05-25T09:08:06.928Z,26.76
2023-05-25T09:10:35.346Z,26.27
2023-05-25T09:13:16.733Z,26.21
2023-05-25T09:15:48.356Z,26.33
2023-05-25T09:18:15.303Z,26.34
2023-05-25T09:20:44.344Z,26.36
2023-05-25T09:23:14.567Z,26.30
2023-05-25T09:28:27.586Z,25.39
2023-05-25T09:30:59.296Z,25.31
2023-05-25T09:33:47.100Z,25.28
2023-05-25T09:36:16.906Z,25.30
2023-05-25T09:38:44.333Z,25.36
2023-05-25T09:41:12.641Z,25.42
2023-05-25T09:43:46.731Z,25.29
2023-05-25T09:46:21.716Z,25.01
2023-05-25T09:48:50.355Z,24.93
2023-05-25T09:51:17.535Z,24.89
2023-05-25T09:53:44.417Z,25.12
2023-05-25T09:56:13.819Z,25.10
2023-05-25T09:58:41.238Z,25.10
2023-05-25T10:01:08.766Z,25.02
2023-05-25T10:03:36.268Z,25.03
2023-05-25T10:06:04.640Z,25.03
2023-05-25T10:08:31.896Z,25.03
2023-05-25T10:10:59.007Z,24.39
2023-05-25T10:13:29.319Z,24.00
2023-05-25T10:15:57.543Z,23.85
2023-05-25T10:18:32.453Z,23.66
2023-05-25T10:21:04.958Z,23.55
2023-05-25T10:23:45.457Z,22.91
2023-05-25T10:26:18.691Z,23.24
2023-05-25T10:28:47.892Z,22.85
2023-05-25T10:31:16.637Z,22.65
2023-05-25T10:33:47.546Z,22.70
2023-05-25T10:36:19.589Z,22.79
2023-05-25T10:38:47.539Z,22.73
2023-05-25T10:41:16.129Z,22.80
2023-05-25T10:43:44.015Z,22.90
2023-05-25T10:46:12.720Z,22.82
2023-05-25T10:48:45.160Z,22.76
2023-05-25T10:51:12.325Z,22.79
2023-05-25T10:53:39.931Z,22.62
2023-05-25T10:56:08.745Z,22.35
2023-05-25T10:58:36.662Z,22.19
2023-05-25T11:01:11.517Z,22.12
2023-05-25T11:03:56.745Z,22.19
2023-05-25T11:06:48.300Z,22.03
2023-05-25T11:09:38.877Z,22.18
2023-05-25T11:12:09.576Z,22.31
2023-05-25T11:14:44.879Z,22.22
2023-05-25T11:17:29.722Z,22.16
2023-05-25T11:20:02.386Z,22.09
2023-05-25T11:22:32.065Z,22.13
2023-05-25T11:25:00.748Z,22.15
2023-05-25T11:27:31.849Z,22.28
2023-05-25T11:30:02.330Z,22.14
2023-05-25T11:32:32.431Z,22.07
2023-05-25T11:34:59.617Z,22.08
2023-05-25T11:37:31.579Z,22.08
2023-05-25T11:40:06.624Z,22.16
2023-05-25T11:42:33.819Z,22.09
2023-05-25T11:45:03.704Z,22.06
2023-05-25T11:47:33.629Z,22.02
2023-05-25T11:50:01.528Z,22.13
2023-05-25T11:52:30.387Z,22.11
2023-05-25T11:54:57.488Z,22.13
2023-05-25T11:57:25.794Z,22.14
2023-05-25T11:59:57.387Z,22.15
2023-05-25T12:02:25.049Z,22.19
2023-05-25T12:05:04.454Z,22.01
2023-05-25T12:07:34.730Z,22.14
2023-05-25T12:10:12.773Z,22.08
2023-05-25T12:12:39.909Z,22.20
2023-05-25T12:15:16.694Z,22.18
2023-05-25T12:17:45.969Z,22.25
2023-05-25T12:20:15.400Z,22.14
2023-05-25T12:22:44.889Z,22.16
2023-05-25T12:25:16.034Z,22.10
2023-05-25T12:27:44.025Z,22.13
2023-05-25T12:30:13.193Z,22.20
2023-05-25T12:33:00.944Z,22.23
2023-05-25T12:35:50.398Z,22.20
2023-05-25T12:38:22.020Z,22.39
2023-05-25T12:41:07.373Z,22.26
2023-05-25T12:43:44.092Z,22.24
2023-05-25T12:46:23.934Z,22.24
2023-05-25T12:48:50.992Z,22.28
2023-05-25T12:51:19.725Z,22.30
2023-05-25T12:53:53.161Z,22.26
2023-05-25T12:56:22.604Z,22.29
2023-05-25T12:58:49.601Z,22.33
2023-05-25T13:01:16.735Z,22.33
2023-05-25T13:03:43.545Z,22.42
2023-05-25T13:06:10.523Z,22.40
2023-05-25T13:08:37.618Z,22.47
2023-05-25T13:11:05.212Z,22.47
2023-05-25T13:13:32.255Z,22.43
2023-05-25T13:15:59.196Z,22.40
2023-05-25T13:18:26.628Z,22.48
2023-05-25T13:20:56.366Z,22.41
2023-05-25T13:23:24.133Z,22.49
2023-05-25T13:25:51.104Z,22.60
2023-05-25T13:28:17.937Z,22.66
2023-05-25T13:30:44.958Z,22.61
2023-05-25T13:33:12.160Z,22.55
2023-05-25T13:35:46.383Z,22.59
2023-05-25T13:38:15.222Z,22.57
2023-05-25T13:40:44.450Z,22.62
2023-05-25T13:43:13.258Z,22.67
2023-05-25T13:45:40.168Z,22.77
2023-05-25T13:48:07.465Z,22.70
2023-05-25T13:50:34.502Z,22.67
2023-05-25T13:53:01.454Z,22.64
2023-05-25T13:55:28.351Z,22.69
2023-05-25T13:57:58.360Z,22.63
2023-05-25T14:00:25.232Z,22.68
2023-05-25T14:03:18.516Z,22.74
2023-05-25T14:05:46.072Z,22.75
2023-05-25T14:08:16.217Z,22.73
2023-05-25T14:11:09.126Z,22.61
2023-05-25T14:13:41.850Z,22.63
2023-05-25T14:16:09.560Z,22.71
2023-05-25T14:18:36.512Z,22.80
2023-05-25T14:21:03.585Z,22.79
2023-05-25T14:23:30.661Z,22.73
2023-05-25T14:25:57.574Z,22.62
2023-05-25T14:28:24.418Z,22.68
2023-05-25T14:30:51.496Z,22.73
2023-05-25T14:33:18.411Z,22.66
2023-05-25T14:35:45.626Z,22.70
2023-05-25T14:38:14.234Z,22.82
2023-05-25T14:40:41.041Z,22.68
2023-05-25T14:43:07.981Z,22.66
2023-05-25T14:45:34.859Z,22.65
2023-05-25T14:48:15.061Z,22.61
2023-05-25T14:50:44.593Z,22.67
2023-05-25T14:53:12.005Z,22.67
2023-05-25T14:55:43.955Z,22.72
2023-05-25T14:58:11.369Z,22.77
2023-05-25T15:00:41.081Z,22.61
2023-05-25T15:03:08.383Z,22.60
2023-05-25T15:05:35.601Z,22.68
2023-05-25T15:08:03.058Z,22.56
2023-05-25T15:10:31.237Z,22.48
2023-05-25T15:12:58.733Z,22.40
2023-05-25T15:15:25.517Z,22.40
2023-05-25T15:17:52.418Z,22.37
2023-05-25T15:20:19.493Z,22.39
2023-05-25T15:22:47.797Z,22.34
2023-05-25T15:25:19.043Z,22.40
2023-05-25T15:27:51.955Z,22.46
2023-05-25T15:30:19.432Z,22.52
2023-05-25T15:32:48.664Z,22.59
2023-05-25T15:35:15.735Z,22.47
2023-05-25T15:37:43.983Z,22.41
2023-05-25T15:40:13.539Z,22.52
2023-05-25T15:42:41.040Z,22.51
2023-05-25T15:45:08.552Z,22.43
2023-05-25T15:47:35.451Z,22.41
2023-05-25T15:50:02.360Z,22.49
2023-05-25T15:52:31.172Z,22.47
2023-05-25T15:54:58.596Z,22.47
2023-05-25T15:57:25.553Z,22.48
2023-05-25T15:59:52.496Z,22.53
2023-05-25T16:02:19.417Z,22.37
2023-05-25T16:04:46.363Z,22.35
2023-05-25T16:07:14.294Z,22.29
2023-05-25T16:09:41.175Z,22.34
2023-05-25T16:12:08.097Z,22.37
2023-05-25T16:14:35.113Z,22.31
2023-05-25T16:17:03.072Z,22.32
2023-05-25T16:19:30.001Z,22.31
2023-05-25T16:21:57.976Z,22.22
2023-05-25T16:24:27.099Z,22.20
2023-05-25T16:26:54.229Z,22.17
2023-05-25T16:29:23.649Z,22.15
2023-05-25T16:31:51.661Z,22.15
2023-05-25T16:34:18.548Z,22.12
2023-05-25T16:36:45.380Z,22.15
2023-05-25T16:39:12.213Z,22.12
2023-05-25T16:41:43.876Z,22.11
2023-05-25T16:44:11.784Z,22.13
2023-05-25T16:46:39.234Z,22.07
2023-05-25T16:49:06.597Z,22.05
2023-05-25T16:51:33.472Z,21.92
2023-05-25T16:54:00.335Z,21.86
2023-05-25T16:56:27.364Z,21.85
2023-05-25T16:58:55.103Z,21.84
2023-05-25T17:01:22.287Z,21.84
2023-05-25T17:03:49.451Z,21.77
2023-05-25T17:06:16.465Z,21.68
2023-05-25T17:08:43.394Z,21.67
2023-05-25T17:11:10.783Z,21.73
2023-05-25T17:13:38.100Z,21.68
2023-05-25T17:16:05.090Z,21.61
2023-05-25T17:18:32.052Z,21.61
2023-05-25T17:20:58.975Z,21.57
2023-05-25T17:23:25.949Z,21.63
2023-05-25T17:25:53.141Z,21.52
2023-05-25T17:28:20.257Z,21.51
2023-05-25T17:30:48.596Z,21.47
2023-05-25T17:33:16.268Z,21.43
2023-05-25T17:35:43.310Z,21.38
2023-05-25T17:38:10.892Z,21.36
2023-05-25T17:40:37.724Z,21.37
2023-05-25T17:43:04.602Z,21.34
2023-05-25T17:45:31.430Z,21.27
2023-05-25T17:47:58.907Z,21.26
2023-05-25T17:50:25.953Z,21.18
2023-05-25T17:52:52.774Z,21.17
2023-05-25T17:55:20.814Z,21.17
2023-05-25T17:57:48.379Z,21.12
2023-05-25T18:00:15.921Z,21.04
2023-05-25T18:02:44.191Z,20.99
2023-05-25T18:05:11.121Z,21.06
2023-05-25T18:07:37.983Z,20.90
2023-05-25T18:10:05.452Z,20.90
2023-05-25T18:12:33.185Z,20.80
2023-05-25T18:15:00.177Z,20.75
2023-05-25T18:17:27.274Z,20.67
2023-05-25T18:19:55.243Z,20.65
2023-05-25T18:22:22.148Z,20.62
2023-05-25T18:24:49.028Z,20.57
2023-05-25T18:27:15.848Z,20.55
2023-05-25T18:29:42.891Z,20.53
2023-05-25T18:32:09.773Z,20.47
2023-05-25T18:34:36.749Z,20.53
2023-05-25T18:37:03.613Z,20.44
2023-05-25T18:39:31.399Z,20.41
2023-05-25T18:41:58.265Z,20.34
2023-05-25T18:44:25.274Z,20.38
2023-05-25T18:46:53.580Z,20.36
2023-05-25T18:49:20.482Z,20.32
2023-05-25T18:51:47.838Z,20.29
2023-05-25T18:54:17.252Z,20.28
2023-05-25T18:56:44.120Z,20.23
2023-05-25T18:59:12.510Z,20.25
2023-05-25T19:01:39.414Z,20.27
2023-05-25T19:04:06.653Z,20.19
2023-05-25T19:06:33.682Z,20.19
2023-05-25T19:09:00.767Z,20.15
2023-05-25T19:11:27.837Z,20.10
2023-05-25T19:13:54.687Z,20.10
2023-05-25T19:16:22.099Z,20.04
2023-05-25T19:18:50.093Z,19.99
2023-05-25T19:21:17.060Z,20.02
2023-05-25T19:23:44.953Z,20.01
2023-05-25T19:26:11.917Z,19.90
2023-05-25T19:28:39.256Z,19.83
2023-05-25T19:31:07.125Z,19.84
2023-05-25T19:33:34.122Z,19.84
2023-05-25T19:36:01.193Z,19.83
2023-05-25T19:38:31.501Z,19.80
2023-05-25T19:41:07.670Z,19.78
2023-05-25T19:43:34.686Z,19.74
2023-05-25T19:46:03.413Z,19.70
2023-05-25T19:48:30.417Z,19.69
2023-05-25T19:50:57.738Z,19.78
2023-05-25T19:53:24.741Z,19.76
2023-05-25T19:55:51.645Z,19.77
2023-05-25T19:58:18.587Z,19.76
2023-05-25T20:00:45.483Z,19.69
2023-05-25T20:03:12.830Z,19.71
2023-05-25T20:05:40.294Z,19.71
2023-05-25T20:08:07.196Z,19.80
2023-05-25T20:10:38.954Z,19.73
2023-05-25T20:13:07.515Z,19.69
2023-05-25T20:15:34.938Z,19.78
2023-05-25T20:18:02.956Z,19.69
2023-05-25T20:20:29.918Z,19.68
2023-05-25T20:22:56.911Z,19.66
2023-05-25T20:25:23.888Z,19.59
2023-05-25T20:27:50.727Z,19.60
2023-05-25T20:30:17.886Z,19.53
2023-05-25T20:32:45.185Z,19.65
2023-05-25T20:35:13.469Z,19.56
2023-05-25T20:37:41.907Z,19.52
2023-05-25T20:40:09.313Z,19.50
2023-05-25T20:42:36.359Z,19.44
2023-05-25T20:45:03.891Z,19.40
2023-05-25T20:47:35.326Z,19.39
2023-05-25T20:50:02.248Z,19.33
2023-05-25T20:52:31.203Z,19.25
2023-05-25T20:55:00.854Z,19.25
2023-05-25T20:57:29.183Z,19.17
2023-05-25T20:59:59.833Z,19.17
2023-05-25T21:02:28.755Z,19.12
2023-05-25T21:04:56.133Z,19.17
2023-05-25T21:07:23.038Z,19.08
2023-05-25T21:09:49.886Z,19.04
2023-05-25T21:12:19.007Z,19.04
2023-05-25T21:14:45.986Z,19.03
2023-05-25T21:17:14.880Z,18.99
2023-05-25T21:19:41.906Z,18.99
2023-05-25T21:22:08.858Z,19.02
2023-05-25T21:24:35.976Z,19.01
2023-05-25T21:27:03.521Z,18.98
2023-05-25T21:29:30.402Z,18.94
2023-05-25T21:31:59.501Z,18.91
2023-05-25T21:34:26.580Z,18.81
2023-05-25T21:36:53.638Z,18.73
2023-05-25T21:39:20.514Z,18.64
2023-05-25T21:41:48.397Z,18.47
2023-05-25T21:44:15.515Z,18.35
2023-05-25T21:46:42.385Z,18.23
2023-05-25T21:49:09.309Z,18.13
2023-05-25T21:51:36.585Z,18.04
2023-05-25T21:54:05.464Z,17.99
2023-05-25T21:56:32.372Z,17.91
2023-05-25T21:58:59.228Z,17.85
2023-05-25T22:01:26.349Z,17.80
2023-05-25T22:03:53.248Z,17.71
2023-05-25T22:06:20.559Z,17.66
2023-05-25T22:08:47.651Z,17.62
2023-05-25T22:11:14.729Z,17.54
2023-05-25T22:13:41.508Z,17.46
2023-05-25T22:16:08.341Z,17.39
2023-05-25T22:18:37.828Z,17.32
2023-05-25T22:21:05.827Z,17.23
2023-05-25T22:23:32.669Z,17.16
2023-05-25T22:25:59.518Z,17.10
2023-05-25T22:28:26.555Z,17.04
2023-05-25T22:30:53.434Z,17.02
2023-05-25T22:33:23.540Z,16.94
2023-05-25T22:35:51.015Z,16.88
2023-05-25T22:38:17.910Z,16.88
2023-05-25T22:40:47.696Z,16.86
2023-05-25T22:43:15.024Z,16.84
2023-05-25T22:45:43.112Z,16.86
2023-05-25T22:48:10.977Z,16.87
2023-05-25T22:50:37.896Z,16.84
2023-05-25T22:53:04.761Z,16.81
2023-05-25T22:55:31.825Z,16.79
2023-05-25T22:57:58.846Z,16.80
2023-05-25T23:00:25.797Z,16.76
2023-05-25T23:02:52.827Z,16.75
2023-05-25T23:05:21.955Z,16.71
2023-05-25T23:07:49.887Z,16.67
2023-05-25T23:10:16.896Z,16.63
2023-05-25T23:12:43.884Z,16.63
2023-05-25T23:15:11.343Z,16.59
2023-05-25T23:17:38.407Z,16.58
2023-05-25T23:20:09.862Z,16.56
2023-05-25T23:22:36.870Z,16.52
2023-05-25T23:25:03.829Z,16.47
2023-05-25T23:27:32.460Z,16.35
2023-05-25T23:29:59.367Z,16.27
2023-05-25T23:32:26.272Z,16.22
2023-05-25T23:34:53.176Z,16.19
2023-05-25T23:37:20.030Z,16.15
2023-05-25T23:39:46.884Z,16.16
2023-05-25T23:42:15.553Z,16.16
2023-05-25T23:44:42.775Z,16.14
2023-05-25T23:47:10.530Z,16.12
2023-05-25T23:49:37.407Z,16.05
2023-05-25T23:52:06.133Z,16.03
2023-05-25T23:54:32.996Z,16.07
2023-05-25T23:56:59.904Z,16.14
2023-05-25T23:59:26.807Z,16.20
